createdAt,value
2022-07-30T00:00:51.934Z,2.33
2022-07-30T00:03:23.370Z,2.50
2022-07-30T00:05:56.537Z,2.50
2022-07-30T00:08:27.847Z,2.67
2022-07-30T00:10:59.196Z,3.20
2022-07-30T00:13:30.753Z,2.60
2022-07-30T00:16:02.245Z,2.67
2022-07-30T00:18:33.968Z,3.23
2022-07-30T00:21:06.021Z,2.73
2022-07-30T00:23:37.969Z,2.60
2022-07-30T00:26:09.262Z,2.93
2022-07-30T00:28:40.565Z,3.13
2022-07-30T00:31:11.926Z,2.70
2022-07-30T00:33:43.232Z,3.00
2022-07-30T00:36:14.548Z,3.23
2022-07-30T00:38:45.866Z,2.53
2022-07-30T00:41:17.179Z,2.70
2022-07-30T00:43:48.601Z,2.67
2022-07-30T00:46:20.367Z,2.77
2022-07-30T00:48:51.833Z,2.27
2022-07-30T00:51:23.193Z,3.00
2022-07-30T00:53:54.478Z,2.90
2022-07-30T00:56:25.795Z,2.77
2022-07-30T00:58:57.309Z,3.00
2022-07-30T01:01:28.686Z,2.57
2022-07-30T01:04:00.375Z,3.23
2022-07-30T01:06:31.743Z,2.60
2022-07-30T01:09:03.201Z,2.70
2022-07-30T01:11:40.249Z,3.03
2022-07-30T01:14:12.440Z,2.73
2022-07-30T01:16:43.894Z,2.53
2022-07-30T01:19:46.749Z,3.10
2022-07-30T01:22:31.044Z,3.47
2022-07-30T01:25:13.927Z,2.80
2022-07-30T01:28:06.152Z,3.30
2022-07-30T01:30:41.818Z,3.47
2022-07-30T01:33:16.569Z,2.90
2022-07-30T01:35:50.094Z,3.17
2022-07-30T01:38:23.192Z,3.10
2022-07-30T01:40:55.889Z,3.20
2022-07-30T01:43:28.759Z,3.30
2022-07-30T01:46:03.226Z,3.33
2022-07-30T01:48:37.042Z,3.07
2022-07-30T01:51:11.617Z,3.10
2022-07-30T01:53:44.281Z,3.73
2022-07-30T01:56:17.105Z,2.80
2022-07-30T01:58:49.955Z,2.83
2022-07-30T02:01:21.557Z,3.17
2022-07-30T02:03:53.543Z,3.40
2022-07-30T02:06:33.037Z,3.00
2022-07-30T02:09:10.926Z,3.70
2022-07-30T02:12:08.085Z,3.27
2022-07-30T02:14:47.710Z,2.83
2022-07-30T02:17:30.095Z,2.70
2022-07-30T02:20:09.259Z,3.07
2022-07-30T02:22:45.089Z,2.97
2022-07-30T02:25:20.382Z,3.22
2022-07-30T02:27:56.199Z,3.13
2022-07-30T02:30:31.688Z,3.80
2022-07-30T02:33:08.353Z,3.63
2022-07-30T02:35:41.058Z,3.30
2022-07-30T02:38:15.757Z,3.83
2022-07-30T02:40:49.487Z,3.07
2022-07-30T02:43:25.025Z,4.20
2022-07-30T02:45:58.650Z,3.55
2022-07-30T02:48:34.449Z,4.63
2022-07-30T02:51:08.467Z,3.57
2022-07-30T02:53:42.126Z,3.57
2022-07-30T02:56:15.971Z,4.10
2022-07-30T02:58:49.962Z,4.10
2022-07-30T03:01:23.366Z,3.90
2022-07-30T03:03:55.297Z,4.07
2022-07-30T03:06:27.567Z,3.60
2022-07-30T03:09:01.142Z,3.80
2022-07-30T03:11:34.304Z,3.40
2022-07-30T03:14:07.876Z,3.90
2022-07-30T03:16:42.107Z,4.03
2022-07-30T03:19:16.897Z,4.30
2022-07-30T03:21:48.947Z,4.23
2022-07-30T03:24:23.668Z,3.60
2022-07-30T03:26:56.689Z,4.03
2022-07-30T03:29:30.505Z,4.00
2022-07-30T03:32:03.977Z,3.93
2022-07-30T03:34:36.532Z,3.77
2022-07-30T03:37:09.111Z,4.07
2022-07-30T03:39:40.950Z,3.90
2022-07-30T03:42:12.387Z,4.17
2022-07-30T03:44:45.741Z,4.10
2022-07-30T03:47:17.963Z,4.63
2022-07-30T03:49:49.490Z,3.80
2022-07-30T03:52:21.078Z,4.50
2022-07-30T03:54:52.955Z,4.30
2022-07-30T03:57:25.711Z,3.93
2022-07-30T03:59:57.354Z,3.80
2022-07-30T04:02:28.673Z,3.93
2022-07-30T04:04:59.983Z,4.13
2022-07-30T04:07:31.274Z,3.40
2022-07-30T04:10:03.020Z,3.77
2022-07-30T04:12:34.362Z,3.63
2022-07-30T04:16:05.420Z,3.30
2022-07-30T04:18:03.074Z,3.57
2022-07-30T04:20:43.515Z,4.17
2022-07-30T04:23:15.634Z,3.50
2022-07-30T04:25:47.144Z,3.80
2022-07-30T04:28:19.749Z,3.20
2022-07-30T04:30:51.467Z,3.30
2022-07-30T04:33:22.898Z,3.13
2022-07-30T04:35:54.236Z,3.47
2022-07-30T04:38:25.617Z,3.90
2022-07-30T04:40:56.938Z,3.50
2022-07-30T04:43:28.363Z,4.50
2022-07-30T04:45:59.803Z,3.43
2022-07-30T04:48:31.203Z,3.23
2022-07-30T04:51:07.034Z,3.50
2022-07-30T04:53:39.047Z,3.45
2022-07-30T04:56:11.337Z,3.90
2022-07-30T04:58:44.513Z,4.20
2022-07-30T05:01:22.655Z,3.90
2022-07-30T05:03:54.972Z,4.00
2022-07-30T05:06:28.084Z,4.33
2022-07-30T05:08:59.875Z,4.00
2022-07-30T05:11:31.221Z,3.90
2022-07-30T05:14:02.679Z,3.97
2022-07-30T05:16:34.972Z,3.90
2022-07-30T05:19:07.922Z,3.97
2022-07-30T05:21:39.431Z,3.90
2022-07-30T05:24:10.979Z,4.80
2022-07-30T05:26:42.790Z,4.50
2022-07-30T05:29:18.029Z,4.27
2022-07-30T05:31:51.458Z,4.00
2022-07-30T05:34:23.394Z,4.50
2022-07-30T05:36:54.697Z,4.57
2022-07-30T05:39:25.997Z,4.33
2022-07-30T05:41:57.598Z,4.97
2022-07-30T05:44:28.889Z,4.10
2022-07-30T05:47:00.374Z,4.10
2022-07-30T05:49:32.137Z,4.43
2022-07-30T05:52:03.639Z,3.70
2022-07-30T05:54:37.671Z,4.17
2022-07-30T05:57:09.013Z,4.40
2022-07-30T05:59:40.396Z,4.50
2022-07-30T06:02:12.002Z,4.20
2022-07-30T06:04:46.137Z,4.17
2022-07-30T06:07:17.757Z,4.30
2022-07-30T06:09:49.138Z,4.37
2022-07-30T06:12:21.145Z,4.20
2022-07-30T06:14:52.574Z,3.93
2022-07-30T06:17:24.092Z,4.13
2022-07-30T06:19:55.563Z,4.50
2022-07-30T06:22:27.009Z,4.40
2022-07-30T06:24:58.321Z,4.50
2022-07-30T06:27:31.693Z,4.43
2022-07-30T06:30:06.803Z,4.47
2022-07-30T06:32:38.249Z,4.40
2022-07-30T06:35:09.690Z,4.60
2022-07-30T06:38:00.618Z,4.03
2022-07-30T06:40:34.073Z,4.50
2022-07-30T06:43:05.379Z,4.37
2022-07-30T06:45:36.740Z,4.18
2022-07-30T06:48:08.272Z,4.10
2022-07-30T06:50:41.388Z,4.10
2022-07-30T06:53:13.071Z,4.13
2022-07-30T06:55:44.394Z,3.83
2022-07-30T06:58:16.005Z,3.72
2022-07-30T07:00:56.818Z,3.40
2022-07-30T07:03:39.395Z,3.67
2022-07-30T07:06:11.310Z,3.60
2022-07-30T07:08:42.616Z,3.60
2022-07-30T07:11:13.976Z,3.72
2022-07-30T07:13:45.286Z,2.80
2022-07-30T07:16:16.697Z,3.40
2022-07-30T07:18:48.495Z,4.20
2022-07-30T07:21:20.551Z,3.65
2022-07-30T07:23:51.970Z,3.92
2022-07-30T07:26:23.985Z,3.55
2022-07-30T07:28:55.290Z,3.05
2022-07-30T07:32:06.920Z,3.30
2022-07-30T07:34:17.925Z,3.28
2022-07-30T07:36:49.268Z,3.03
2022-07-30T07:39:20.616Z,2.70
2022-07-30T07:41:51.954Z,3.38
2022-07-30T07:44:23.269Z,3.38
2022-07-30T07:46:54.597Z,3.40
2022-07-30T07:49:25.977Z,3.05
2022-07-30T07:51:57.335Z,2.92
2022-07-30T07:54:28.653Z,3.38
2022-07-30T07:57:01.474Z,3.40
2022-07-30T07:59:40.365Z,3.20
2022-07-30T08:02:12.139Z,3.40
2022-07-30T08:04:43.493Z,3.35
2022-07-30T08:07:14.901Z,3.30
2022-07-30T08:09:46.296Z,3.00
2022-07-30T08:12:17.853Z,3.50
2022-07-30T08:14:49.329Z,3.38
2022-07-30T08:17:20.779Z,3.90
2022-07-30T08:19:52.708Z,3.45
2022-07-30T08:22:24.024Z,3.53
2022-07-30T08:24:55.552Z,4.07
2022-07-30T08:27:26.917Z,4.18
2022-07-30T08:29:58.211Z,3.45
2022-07-30T08:32:29.909Z,3.65
2022-07-30T08:35:01.585Z,3.65
2022-07-30T08:37:32.982Z,3.90
2022-07-30T08:40:05.050Z,3.95
2022-07-30T08:42:36.462Z,3.85
2022-07-30T08:45:09.242Z,4.10
2022-07-30T08:47:44.719Z,4.38
2022-07-30T08:50:16.908Z,4.63
2022-07-30T08:52:49.196Z,4.18
2022-07-30T08:55:21.269Z,5.00
2022-07-30T08:57:52.888Z,4.30
2022-07-30T09:00:24.317Z,5.18
2022-07-30T09:02:57.183Z,4.55
2022-07-30T09:05:28.473Z,5.20
2022-07-30T09:07:59.778Z,4.65
2022-07-30T09:10:31.134Z,4.65
2022-07-30T09:13:02.533Z,4.60
2022-07-30T09:15:38.618Z,4.53
2022-07-30T09:18:11.561Z,4.38
2022-07-30T09:20:42.859Z,4.65
2022-07-30T09:23:14.234Z,4.80
2022-07-30T09:25:48.021Z,5.00
2022-07-30T09:28:29.464Z,5.70
2022-07-30T09:31:00.877Z,4.68
2022-07-30T09:33:44.142Z,4.60
2022-07-30T09:36:18.791Z,5.40
2022-07-30T09:38:52.644Z,4.65
2022-07-30T09:41:39.328Z,5.15
2022-07-30T09:44:23.687Z,5.00
2022-07-30T09:46:55.929Z,4.75
2022-07-30T09:49:29.100Z,4.88
2022-07-30T09:52:01.044Z,5.15
2022-07-30T09:54:51.871Z,5.60
2022-07-30T09:57:27.829Z,4.82
2022-07-30T10:02:51.565Z,4.85
2022-07-30T10:05:24.313Z,5.15
2022-07-30T10:08:02.603Z,4.88
2022-07-30T10:10:35.991Z,4.90
2022-07-30T10:13:20.812Z,4.57
2022-07-30T10:15:52.486Z,5.20
2022-07-30T10:18:24.341Z,5.10
2022-07-30T10:20:55.955Z,4.90
2022-07-30T10:23:29.671Z,4.60
2022-07-30T10:26:04.754Z,5.53
2022-07-30T10:28:40.538Z,4.53
2022-07-30T10:31:49.243Z,4.32
2022-07-30T10:34:04.778Z,5.25
2022-07-30T10:36:36.616Z,3.80
2022-07-30T10:39:10.686Z,4.10
2022-07-30T10:41:53.879Z,3.67
2022-07-30T10:44:52.381Z,3.83
2022-07-30T10:47:29.816Z,4.05
2022-07-30T10:50:13.972Z,4.13
2022-07-30T10:52:55.882Z,4.00
2022-07-30T10:55:36.788Z,3.75
2022-07-30T10:58:12.420Z,4.20
2022-07-30T11:00:48.687Z,4.10
2022-07-30T11:03:40.026Z,3.53
2022-07-30T11:06:15.427Z,3.70
2022-07-30T11:08:48.478Z,3.15
2022-07-30T11:12:01.462Z,3.05
2022-07-30T11:14:14.261Z,2.95
2022-07-30T11:16:46.165Z,3.45
2022-07-30T11:19:56.662Z,2.90
2022-07-30T11:22:40.345Z,3.13
2022-07-30T11:25:50.455Z,3.17
2022-07-30T11:28:49.609Z,3.20
2022-07-30T11:31:55.701Z,3.25
2022-07-30T11:34:26.097Z,3.50
2022-07-30T11:37:21.933Z,3.03
2022-07-30T11:39:54.033Z,3.10
2022-07-30T11:42:28.299Z,2.95
2022-07-30T11:45:18.394Z,2.60
2022-07-30T11:47:55.490Z,2.75
2022-07-30T11:50:31.872Z,3.22
2022-07-30T11:53:06.507Z,2.95
2022-07-30T11:55:40.708Z,3.10
2022-07-30T11:58:34.587Z,2.70
2022-07-30T12:01:11.972Z,2.75
2022-07-30T12:03:45.373Z,2.53
2022-07-30T12:06:23.455Z,2.13
2022-07-30T12:08:58.511Z,2.90
2022-07-30T12:11:36.740Z,2.88
2022-07-30T12:14:08.133Z,2.78
2022-07-30T12:16:41.025Z,2.65
2022-07-30T12:19:13.925Z,2.60
2022-07-30T12:21:49.439Z,2.72
2022-07-30T12:24:26.995Z,2.60
2022-07-30T12:27:08.438Z,2.65
2022-07-30T12:29:40.901Z,2.30
2022-07-30T12:32:12.269Z,2.50
2022-07-30T12:34:56.105Z,2.72
2022-07-30T12:37:28.070Z,2.40
2022-07-30T12:40:16.526Z,2.25
2022-07-30T12:42:52.710Z,2.45
2022-07-30T12:45:51.805Z,2.72
2022-07-30T12:48:24.249Z,2.17
2022-07-30T12:51:09.156Z,1.80
2022-07-30T12:53:40.614Z,2.00
2022-07-30T12:56:16.882Z,2.15
2022-07-30T12:58:48.608Z,2.78
2022-07-30T13:01:39.856Z,2.47
2022-07-30T13:04:12.768Z,2.40
2022-07-30T13:06:44.585Z,2.50
2022-07-30T13:09:20.243Z,2.42
2022-07-30T13:11:51.553Z,2.50
2022-07-30T13:14:23.653Z,2.33
2022-07-30T13:16:58.660Z,2.13
2022-07-30T13:19:30.683Z,2.22
2022-07-30T13:22:02.020Z,3.00
2022-07-30T13:24:34.028Z,2.60
2022-07-30T13:27:05.646Z,2.83
2022-07-30T13:29:37.189Z,2.50
2022-07-30T13:32:08.522Z,2.13
2022-07-30T13:34:41.902Z,2.85
2022-07-30T13:37:13.210Z,2.58
2022-07-30T13:39:44.501Z,2.30
2022-07-30T13:42:15.809Z,2.72
2022-07-30T13:44:47.133Z,2.55
2022-07-30T13:47:18.523Z,2.75
2022-07-30T13:49:50.902Z,2.70
2022-07-30T13:52:22.201Z,2.65
2022-07-30T13:54:54.295Z,2.80
2022-07-30T13:57:25.674Z,2.70
2022-07-30T13:59:57.163Z,2.10
2022-07-30T14:02:28.562Z,2.40
2022-07-30T14:05:06.953Z,2.07
2022-07-30T14:07:39.846Z,2.15
2022-07-30T14:10:11.189Z,2.58
2022-07-30T14:12:42.660Z,2.00
2022-07-30T14:15:17.717Z,2.50
2022-07-30T14:20:29.011Z,2.67
2022-07-30T14:23:00.637Z,2.30
2022-07-30T14:25:32.006Z,2.13
2022-07-30T14:28:03.705Z,2.13
2022-07-30T14:30:35.055Z,2.50
2022-07-30T14:33:06.507Z,2.63
2022-07-30T14:35:37.830Z,2.58
2022-07-30T14:38:09.134Z,2.40
2022-07-30T14:40:40.448Z,2.95
2022-07-30T14:43:14.162Z,2.13
2022-07-30T14:45:45.514Z,2.67
2022-07-30T14:48:17.417Z,2.33
2022-07-30T14:51:12.360Z,2.55
2022-07-30T14:53:40.317Z,2.42
2022-07-30T14:56:13.350Z,2.75
2022-07-30T14:58:45.299Z,2.47
2022-07-30T15:01:17.279Z,3.33
2022-07-30T15:03:48.662Z,2.70
2022-07-30T15:06:19.974Z,2.45
2022-07-30T15:08:51.328Z,2.58
2022-07-30T15:11:22.657Z,2.50
2022-07-30T15:13:54.253Z,2.53
2022-07-30T15:16:25.890Z,2.65
2022-07-30T15:18:57.291Z,2.67
2022-07-30T15:21:28.631Z,6.18
2022-07-30T15:23:59.946Z,30.52
2022-07-30T15:26:31.881Z,78.68
2022-07-30T15:29:03.393Z,22.00
2022-07-30T15:31:34.779Z,34.60
2022-07-30T15:34:10.653Z,11.68
2022-07-30T15:36:42.484Z,3.53
2022-07-30T15:39:15.463Z,4.18
2022-07-30T15:41:47.010Z,4.40
2022-07-30T15:44:19.490Z,14.60
2022-07-30T15:46:51.654Z,53.95
2022-07-30T15:49:23.066Z,68.88
2022-07-30T15:51:54.632Z,32.55
2022-07-30T15:54:28.688Z,25.38
2022-07-30T15:57:01.113Z,10.30
2022-07-30T15:59:33.037Z,15.05
2022-07-30T16:02:04.765Z,7.28
2022-07-30T16:04:36.532Z,3.10
2022-07-30T16:07:07.867Z,57.85
2022-07-30T16:09:41.477Z,63.97
2022-07-30T16:12:12.788Z,10.57
2022-07-30T16:14:44.164Z,4.13
2022-07-30T16:17:16.360Z,6.75
2022-07-30T16:19:47.678Z,2.95
2022-07-30T16:22:22.177Z,3.83
2022-07-30T16:24:55.664Z,8.60
2022-07-30T16:27:27.415Z,2.90
2022-07-30T16:29:58.734Z,3.38
2022-07-30T16:32:30.071Z,2.70
2022-07-30T16:35:01.423Z,3.05
2022-07-30T16:37:32.756Z,2.40
2022-07-30T16:40:04.659Z,2.20
2022-07-30T16:42:36.021Z,2.17
2022-07-30T16:45:07.946Z,2.40
2022-07-30T16:47:39.323Z,2.33
2022-07-30T16:50:10.675Z,2.40
2022-07-30T16:52:42.091Z,2.70
2022-07-30T16:55:13.405Z,2.88
2022-07-30T16:57:44.745Z,2.60
2022-07-30T17:00:18.082Z,2.30
2022-07-30T17:02:49.379Z,3.05
2022-07-30T17:05:20.682Z,3.15
2022-07-30T17:07:51.981Z,5.32
2022-07-30T17:10:25.459Z,2.67
2022-07-30T17:12:57.809Z,3.08
2022-07-30T17:15:31.978Z,3.63
2022-07-30T17:18:04.902Z,2.30
2022-07-30T17:20:36.768Z,2.67
2022-07-30T17:23:15.848Z,2.65
2022-07-30T17:25:47.163Z,2.95
2022-07-30T17:28:19.450Z,2.63
2022-07-30T17:30:55.676Z,2.70
2022-07-30T17:33:27.046Z,3.05
2022-07-30T17:35:58.443Z,2.80
2022-07-30T17:38:29.803Z,2.75
2022-07-30T17:41:01.363Z,2.80
2022-07-30T17:43:32.655Z,2.65
2022-07-30T17:46:04.077Z,3.42
2022-07-30T17:48:35.385Z,3.13
2022-07-30T17:51:06.699Z,3.25
2022-07-30T17:53:38.123Z,3.05
2022-07-30T17:56:26.417Z,2.88
2022-07-30T17:58:58.780Z,2.80
2022-07-30T18:01:30.525Z,2.65
2022-07-30T18:04:02.015Z,3.10
2022-07-30T18:06:33.455Z,3.40
2022-07-30T18:09:05.333Z,2.83
2022-07-30T18:11:36.730Z,3.33
2022-07-30T18:14:08.041Z,3.83
2022-07-30T18:16:39.378Z,2.75
2022-07-30T18:19:26.922Z,3.30
2022-07-30T18:22:02.856Z,2.83
2022-07-30T18:27:12.269Z,2.60
2022-07-30T18:29:43.660Z,2.85
2022-07-30T18:32:14.966Z,3.13
2022-07-30T18:34:46.314Z,2.90
2022-07-30T18:37:17.924Z,3.20
2022-07-30T18:39:49.276Z,3.10
2022-07-30T18:42:20.831Z,2.88
2022-07-30T18:44:55.178Z,2.85
2022-07-30T18:47:26.483Z,3.30
2022-07-30T18:49:57.887Z,3.10
2022-07-30T18:52:29.306Z,2.65
2022-07-30T18:55:01.120Z,2.90
2022-07-30T18:57:32.437Z,3.08
2022-07-30T19:00:08.894Z,3.00
2022-07-30T19:02:40.674Z,3.08
2022-07-30T19:05:12.033Z,2.70
2022-07-30T19:07:55.457Z,2.60
2022-07-30T19:10:28.929Z,2.90
2022-07-30T19:13:00.492Z,2.53
2022-07-30T19:15:31.857Z,2.90
2022-07-30T19:18:03.385Z,2.90
2022-07-30T19:20:34.731Z,3.00
2022-07-30T19:23:07.700Z,2.53
2022-07-30T19:25:39.203Z,2.35
2022-07-30T19:28:15.312Z,3.03
2022-07-30T19:30:46.733Z,2.67
2022-07-30T19:33:18.239Z,2.35
2022-07-30T19:35:50.110Z,2.40
2022-07-30T19:38:23.956Z,3.10
2022-07-30T19:40:55.444Z,2.40
2022-07-30T19:43:27.319Z,2.55
2022-07-30T19:45:59.925Z,2.40
2022-07-30T19:48:32.478Z,2.30
2022-07-30T19:51:04.504Z,2.40
2022-07-30T19:53:35.870Z,2.38
2022-07-30T19:56:10.762Z,2.42
2022-07-30T19:58:42.745Z,2.42
2022-07-30T20:01:15.592Z,2.25
2022-07-30T20:03:47.001Z,3.13
2022-07-30T20:06:19.101Z,3.25
2022-07-30T20:08:52.487Z,2.10
2022-07-30T20:11:36.081Z,2.95
2022-07-30T20:14:08.043Z,2.63
2022-07-30T20:16:39.359Z,2.67
2022-07-30T20:19:11.294Z,2.28
2022-07-30T20:21:56.643Z,3.25
2022-07-30T20:24:28.955Z,2.72
2022-07-30T20:27:01.630Z,3.00
2022-07-30T20:29:53.029Z,2.75
2022-07-30T20:32:25.631Z,4.65
2022-07-30T20:34:57.162Z,3.13
2022-07-30T20:37:29.540Z,3.17
2022-07-30T20:40:00.827Z,3.00
2022-07-30T20:42:32.628Z,3.05
2022-07-30T20:45:05.891Z,3.13
2022-07-30T20:47:40.864Z,2.45
2022-07-30T20:50:14.476Z,3.00
2022-07-30T20:52:46.662Z,2.92
2022-07-30T20:55:22.088Z,3.38
2022-07-30T20:58:00.292Z,2.90
2022-07-30T21:00:37.689Z,4.13
2022-07-30T21:03:13.617Z,3.55
2022-07-30T21:05:46.553Z,3.58
2022-07-30T21:08:18.057Z,3.70
2022-07-30T21:10:49.457Z,3.22
2022-07-30T21:13:21.240Z,3.83
2022-07-30T21:16:01.977Z,4.80
2022-07-30T21:18:34.617Z,3.60
2022-07-30T21:21:05.940Z,3.30
2022-07-30T21:23:37.556Z,4.13
2022-07-30T21:26:10.513Z,3.63
2022-07-30T21:28:44.847Z,4.55
2022-07-30T21:31:16.211Z,3.88
2022-07-30T21:33:47.650Z,3.75
2022-07-30T21:36:24.764Z,4.18
2022-07-30T21:38:56.410Z,3.83
2022-07-30T21:41:39.909Z,3.70
2022-07-30T21:44:12.173Z,3.92
2022-07-30T21:46:44.461Z,3.20
2022-07-30T21:49:15.807Z,4.05
2022-07-30T21:51:47.205Z,4.60
2022-07-30T21:54:29.106Z,3.92
2022-07-30T21:57:03.010Z,4.55
2022-07-30T21:59:34.391Z,4.85
2022-07-30T22:02:06.563Z,4.47
2022-07-30T22:04:47.527Z,4.85
2022-07-30T22:07:22.122Z,4.63
2022-07-30T22:09:53.574Z,5.25
2022-07-30T22:12:28.892Z,4.70
2022-07-30T22:15:01.383Z,4.30
2022-07-30T22:17:37.417Z,4.60
2022-07-30T22:20:26.853Z,4.45
2022-07-30T22:23:01.060Z,4.38
2022-07-30T22:25:43.736Z,4.55
2022-07-30T22:28:16.696Z,4.95
2022-07-30T22:30:48.123Z,4.72
2022-07-30T22:33:19.978Z,5.10
2022-07-30T22:35:51.359Z,4.97
2022-07-30T22:38:22.672Z,4.50
2022-07-30T22:40:54.091Z,5.10
2022-07-30T22:43:27.018Z,4.75
2022-07-30T22:46:27.209Z,4.00
2022-07-30T22:48:59.122Z,4.78
2022-07-30T22:51:58.609Z,4.72
2022-07-30T22:54:22.340Z,5.13
2022-07-30T22:56:54.125Z,4.18
2022-07-30T22:59:57.543Z,5.32
2022-07-30T23:02:18.077Z,4.03
2022-07-30T23:04:49.505Z,4.63
2022-07-30T23:07:21.141Z,4.63
2022-07-30T23:09:54.689Z,4.00
2022-07-30T23:12:26.069Z,4.53
2022-07-30T23:14:57.381Z,4.55
2022-07-30T23:17:28.722Z,4.30
2022-07-30T23:20:00.148Z,4.53
2022-07-30T23:22:31.625Z,4.75
2022-07-30T23:25:05.042Z,4.07
2022-07-30T23:27:36.737Z,4.32
2022-07-30T23:30:10.366Z,4.50
2022-07-30T23:32:41.814Z,4.77
2022-07-30T23:35:13.189Z,4.13
2022-07-30T23:37:48.476Z,4.60
2022-07-30T23:40:20.574Z,5.18
2022-07-30T23:42:52.487Z,4.60
2022-07-30T23:45:23.931Z,4.32
2022-07-30T23:48:02.925Z,4.93
2022-07-30T23:50:35.580Z,5.47
2022-07-30T23:53:06.894Z,5.60
2022-07-30T23:55:38.213Z,4.90
2022-07-30T23:58:09.547Z,5.20
